sensor_id;sensor_type;location;lat;lon;timestamp;pressure;altitude;pressure_sealevel;temperature;humidity
7026;BME280;3554;42.132;24.786;2023-07-29T00:02:20;99035.78;;;22.13;94.78
7026;BME280;3554;42.132;24.786;2023-07-29T00:04:47;99031.88;;;22.17;93.49
7026;BME280;3554;42.132;24.786;2023-07-29T00:07:14;99017.97;;;22.23;92.26
7026;BME280;3554;42.132;24.786;2023-07-29T00:09:41;99027.47;;;22.45;91.36
7026;BME280;3554;42.132;24.786;2023-07-29T00:12:08;99031.00;;;22.26;93.05
7026;BME280;3554;42.132;24.786;2023-07-29T00:14:35;99009.97;;;22.23;93.33
7026;BME280;3554;42.132;24.786;2023-07-29T00:17:03;99018.34;;;22.38;96.70
7026;BME280;3554;42.132;24.786;2023-07-29T00:19:30;99017.75;;;22.44;96.22
7026;BME280;3554;42.132;24.786;2023-07-29T00:21:57;99021.97;;;22.46;95.98
7026;BME280;3554;42.132;24.786;2023-07-29T00:24:24;99026.47;;;22.46;94.31
7026;BME280;3554;42.132;24.786;2023-07-29T00:26:51;99022.94;;;22.45;96.10
7026;BME280;3554;42.132;24.786;2023-07-29T00:29:18;99021.00;;;22.38;97.38
7026;BME280;3554;42.132;24.786;2023-07-29T00:31:44;99035.50;;;22.25;100.00
7026;BME280;3554;42.132;24.786;2023-07-29T00:34:13;99022.19;;;22.06;100.00
7026;BME280;3554;42.132;24.786;2023-07-29T00:36:44;99010.16;;;21.83;100.00
7026;BME280;3554;42.132;24.786;2023-07-29T00:39:10;99011.53;;;21.68;100.00
7026;BME280;3554;42.132;24.786;2023-07-29T00:41:37;99028.66;;;21.66;100.00
7026;BME280;3554;42.132;24.786;2023-07-29T00:44:04;99028.09;;;21.43;100.00
7026;BME280;3554;42.132;24.786;2023-07-29T00:46:33;99016.84;;;21.30;100.00
7026;BME280;3554;42.132;24.786;2023-07-29T00:49:01;99019.22;;;21.23;100.00
7026;BME280;3554;42.132;24.786;2023-07-29T00:51:29;99016.09;;;21.18;100.00
7026;BME280;3554;42.132;24.786;2023-07-29T00:53:56;99018.22;;;21.24;100.00
7026;BME280;3554;42.132;24.786;2023-07-29T00:56:23;99017.88;;;20.99;100.00
7026;BME280;3554;42.132;24.786;2023-07-29T00:58:50;99010.69;;;20.90;100.00
7026;BME280;3554;42.132;24.786;2023-07-29T01:01:24;99002.69;;;20.80;100.00
7026;BME280;3554;42.132;24.786;2023-07-29T01:03:50;99009.38;;;20.75;100.00
7026;BME280;3554;42.132;24.786;2023-07-29T01:06:22;98997.75;;;20.76;100.00
7026;BME280;3554;42.132;24.786;2023-07-29T01:08:56;98992.50;;;20.95;100.00
7026;BME280;3554;42.132;24.786;2023-07-29T01:11:35;99007.34;;;20.88;100.00
7026;BME280;3554;42.132;24.786;2023-07-29T01:14:11;99009.56;;;20.92;100.00
7026;BME280;3554;42.132;24.786;2023-07-29T01:16:47;99012.34;;;20.81;100.00
7026;BME280;3554;42.132;24.786;2023-07-29T01:22:09;98980.28;;;20.83;100.00
7026;BME280;3554;42.132;24.786;2023-07-29T01:24:38;98993.31;;;20.86;100.00
7026;BME280;3554;42.132;24.786;2023-07-29T01:27:05;99007.78;;;20.93;100.00
7026;BME280;3554;42.132;24.786;2023-07-29T01:29:32;99011.50;;;21.20;100.00
7026;BME280;3554;42.132;24.786;2023-07-29T01:32:03;99011.50;;;21.20;100.00
7026;BME280;3554;42.132;24.786;2023-07-29T01:34:37;99001.28;;;21.16;100.00
7026;BME280;3554;42.132;24.786;2023-07-29T01:37:09;99008.41;;;21.15;100.00
7026;BME280;3554;42.132;24.786;2023-07-29T01:39:42;99017.22;;;21.06;100.00
7026;BME280;3554;42.132;24.786;2023-07-29T01:42:12;99012.53;;;20.89;100.00
7026;BME280;3554;42.132;24.786;2023-07-29T01:44:39;99002.16;;;20.56;100.00
7026;BME280;3554;42.132;24.786;2023-07-29T01:47:07;99006.88;;;20.73;100.00
7026;BME280;3554;42.132;24.786;2023-07-29T01:49:34;99014.19;;;20.90;100.00
7026;BME280;3554;42.132;24.786;2023-07-29T01:52:01;99012.81;;;20.96;100.00
7026;BME280;3554;42.132;24.786;2023-07-29T01:54:28;99019.22;;;20.93;100.00
7026;BME280;3554;42.132;24.786;2023-07-29T01:56:56;99005.34;;;20.90;100.00
7026;BME280;3554;42.132;24.786;2023-07-29T01:59:23;99012.16;;;21.03;100.00
7026;BME280;3554;42.132;24.786;2023-07-29T02:01:50;99022.97;;;21.11;100.00
7026;BME280;3554;42.132;24.786;2023-07-29T02:04:16;99021.44;;;21.09;100.00
7026;BME280;3554;42.132;24.786;2023-07-29T02:06:43;99013.59;;;21.07;100.00
7026;BME280;3554;42.132;24.786;2023-07-29T02:09:10;99026.34;;;21.13;100.00
7026;BME280;3554;42.132;24.786;2023-07-29T02:11:37;99027.47;;;21.11;100.00
7026;BME280;3554;42.132;24.786;2023-07-29T02:14:05;99033.34;;;21.14;100.00
7026;BME280;3554;42.132;24.786;2023-07-29T02:16:32;98997.94;;;20.93;100.00
7026;BME280;3554;42.132;24.786;2023-07-29T02:18:59;99038.94;;;21.11;100.00
7026;BME280;3554;42.132;24.786;2023-07-29T02:21:26;99045.06;;;21.02;100.00
7026;BME280;3554;42.132;24.786;2023-07-29T02:23:53;99000.78;;;20.62;100.00
7026;BME280;3554;42.132;24.786;2023-07-29T02:26:20;99044.16;;;20.92;100.00
7026;BME280;3554;42.132;24.786;2023-07-29T02:28:47;99033.53;;;20.92;100.00
7026;BME280;3554;42.132;24.786;2023-07-29T02:31:17;99033.25;;;20.95;100.00
7026;BME280;3554;42.132;24.786;2023-07-29T02:33:44;99025.41;;;20.94;100.00
7026;BME280;3554;42.132;24.786;2023-07-29T02:36:12;99020.09;;;20.94;100.00
7026;BME280;3554;42.132;24.786;2023-07-29T02:38:39;99013.75;;;20.85;100.00
7026;BME280;3554;42.132;24.786;2023-07-29T02:41:07;99040.41;;;20.95;100.00
7026;BME280;3554;42.132;24.786;2023-07-29T02:43:35;99035.91;;;20.86;100.00
7026;BME280;3554;42.132;24.786;2023-07-29T02:46:02;99035.47;;;20.90;100.00
7026;BME280;3554;42.132;24.786;2023-07-29T02:48:30;99045.75;;;20.95;100.00
7026;BME280;3554;42.132;24.786;2023-07-29T02:50:57;99040.28;;;20.96;100.00
7026;BME280;3554;42.132;24.786;2023-07-29T02:53:24;99041.94;;;20.97;100.00
7026;BME280;3554;42.132;24.786;2023-07-29T02:55:51;99043.19;;;20.93;100.00
7026;BME280;3554;42.132;24.786;2023-07-29T02:58:17;99041.13;;;20.67;100.00
7026;BME280;3554;42.132;24.786;2023-07-29T03:00:44;99039.94;;;20.80;100.00
7026;BME280;3554;42.132;24.786;2023-07-29T03:03:12;99037.44;;;20.88;100.00
7026;BME280;3554;42.132;24.786;2023-07-29T03:05:41;99049.19;;;20.86;100.00
7026;BME280;3554;42.132;24.786;2023-07-29T03:08:07;99043.44;;;20.81;100.00
7026;BME280;3554;42.132;24.786;2023-07-29T03:10:35;99046.34;;;20.78;100.00
7026;BME280;3554;42.132;24.786;2023-07-29T03:13:02;99046.94;;;20.81;100.00
7026;BME280;3554;42.132;24.786;2023-07-29T03:15:28;99048.88;;;20.79;100.00
7026;BME280;3554;42.132;24.786;2023-07-29T03:17:55;99054.75;;;20.73;100.00
7026;BME280;3554;42.132;24.786;2023-07-29T03:20:22;99033.28;;;20.65;100.00
7026;BME280;3554;42.132;24.786;2023-07-29T03:22:50;99049.88;;;20.78;100.00
7026;BME280;3554;42.132;24.786;2023-07-29T03:25:17;99046.66;;;20.54;100.00
7026;BME280;3554;42.132;24.786;2023-07-29T03:27:44;99049.88;;;20.48;100.00
7026;BME280;3554;42.132;24.786;2023-07-29T03:30:11;99056.47;;;20.54;100.00
7026;BME280;3554;42.132;24.786;2023-07-29T03:32:43;99051.28;;;20.32;100.00
7026;BME280;3554;42.132;24.786;2023-07-29T03:35:09;99061.22;;;20.30;100.00
7026;BME280;3554;42.132;24.786;2023-07-29T03:37:36;99064.31;;;20.35;100.00
7026;BME280;3554;42.132;24.786;2023-07-29T03:40:06;99066.97;;;20.35;100.00
7026;BME280;3554;42.132;24.786;2023-07-29T03:42:33;99071.53;;;20.74;100.00
7026;BME280;3554;42.132;24.786;2023-07-29T03:44:59;99068.94;;;21.13;100.00
7026;BME280;3554;42.132;24.786;2023-07-29T03:47:27;99078.59;;;21.73;100.00
7026;BME280;3554;42.132;24.786;2023-07-29T03:49:54;99076.94;;;22.10;100.00
7026;BME280;3554;42.132;24.786;2023-07-29T03:52:20;99082.09;;;22.41;100.00
7026;BME280;3554;42.132;24.786;2023-07-29T03:54:47;99091.16;;;22.67;100.00
7026;BME280;3554;42.132;24.786;2023-07-29T03:57:15;99090.59;;;23.09;100.00
7026;BME280;3554;42.132;24.786;2023-07-29T03:59:42;99092.91;;;23.31;100.00
7026;BME280;3554;42.132;24.786;2023-07-29T04:02:09;99096.72;;;23.29;100.00
7026;BME280;3554;42.132;24.786;2023-07-29T04:04:36;99096.94;;;23.35;100.00
7026;BME280;3554;42.132;24.786;2023-07-29T04:07:03;99103.16;;;23.54;100.00
7026;BME280;3554;42.132;24.786;2023-07-29T04:09:30;99105.19;;;23.69;100.00
7026;BME280;3554;42.132;24.786;2023-07-29T04:11:57;99092.44;;;23.81;100.00
7026;BME280;3554;42.132;24.786;2023-07-29T04:14:25;99102.06;;;23.91;100.00
7026;BME280;3554;42.132;24.786;2023-07-29T04:16:52;99093.69;;;24.04;100.00
7026;BME280;3554;42.132;24.786;2023-07-29T04:19:19;99101.66;;;24.13;100.00
7026;BME280;3554;42.132;24.786;2023-07-29T04:21:46;99118.06;;;24.18;100.00
7026;BME280;3554;42.132;24.786;2023-07-29T04:24:13;99107.25;;;24.28;100.00
7026;BME280;3554;42.132;24.786;2023-07-29T04:26:39;99107.34;;;24.36;100.00
7026;BME280;3554;42.132;24.786;2023-07-29T04:29:06;99105.56;;;24.45;100.00
7026;BME280;3554;42.132;24.786;2023-07-29T04:31:34;99110.75;;;24.46;100.00
7026;BME280;3554;42.132;24.786;2023-07-29T04:34:01;99107.84;;;24.57;100.00
7026;BME280;3554;42.132;24.786;2023-07-29T04:36:28;99121.81;;;24.69;100.00
7026;BME280;3554;42.132;24.786;2023-07-29T04:38:55;99124.38;;;24.70;100.00
7026;BME280;3554;42.132;24.786;2023-07-29T04:41:21;99125.28;;;24.87;100.00
7026;BME280;3554;42.132;24.786;2023-07-29T04:43:48;99121.72;;;24.78;100.00
7026;BME280;3554;42.132;24.786;2023-07-29T04:46:15;99121.44;;;24.81;100.00
7026;BME280;3554;42.132;24.786;2023-07-29T04:48:44;99121.28;;;24.83;100.00
7026;BME280;3554;42.132;24.786;2023-07-29T04:51:10;99111.38;;;25.09;100.00
7026;BME280;3554;42.132;24.786;2023-07-29T04:53:37;99113.31;;;25.32;100.00
7026;BME280;3554;42.132;24.786;2023-07-29T04:56:04;99118.34;;;25.35;100.00
7026;BME280;3554;42.132;24.786;2023-07-29T04:58:31;99119.28;;;25.52;100.00
7026;BME280;3554;42.132;24.786;2023-07-29T05:01:00;99116.97;;;25.65;100.00
7026;BME280;3554;42.132;24.786;2023-07-29T05:03:28;99125.09;;;25.89;100.00
7026;BME280;3554;42.132;24.786;2023-07-29T05:05:57;99111.25;;;25.60;100.00
7026;BME280;3554;42.132;24.786;2023-07-29T05:08:24;99114.97;;;25.25;100.00
7026;BME280;3554;42.132;24.786;2023-07-29T05:10:52;99116.97;;;25.31;100.00
7026;BME280;3554;42.132;24.786;2023-07-29T05:13:19;99093.34;;;25.61;97.26
7026;BME280;3554;42.132;24.786;2023-07-29T05:15:47;99127.75;;;25.81;95.65
7026;BME280;3554;42.132;24.786;2023-07-29T05:18:14;99129.50;;;26.06;95.05
7026;BME280;3554;42.132;24.786;2023-07-29T05:20:42;99120.16;;;26.34;91.81
7026;BME280;3554;42.132;24.786;2023-07-29T05:23:10;99130.28;;;25.83;93.99
7026;BME280;3554;42.132;24.786;2023-07-29T05:25:39;99129.00;;;26.19;90.51
7026;BME280;3554;42.132;24.786;2023-07-29T05:28:06;99139.44;;;26.38;86.47
7026;BME280;3554;42.132;24.786;2023-07-29T05:30:33;99141.94;;;26.56;85.23
7026;BME280;3554;42.132;24.786;2023-07-29T05:33:02;99140.28;;;26.71;85.33
7026;BME280;3554;42.132;24.786;2023-07-29T05:35:29;99126.34;;;26.75;84.52
7026;BME280;3554;42.132;24.786;2023-07-29T05:37:56;99145.81;;;26.69;86.74
7026;BME280;3554;42.132;24.786;2023-07-29T05:40:24;99146.16;;;26.74;86.44
7026;BME280;3554;42.132;24.786;2023-07-29T05:42:51;99154.88;;;26.76;87.13
7026;BME280;3554;42.132;24.786;2023-07-29T05:45:18;99116.91;;;26.63;83.44
7026;BME280;3554;42.132;24.786;2023-07-29T05:47:45;99152.03;;;26.78;88.03
7026;BME280;3554;42.132;24.786;2023-07-29T05:50:12;99154.56;;;26.71;86.06
7026;BME280;3554;42.132;24.786;2023-07-29T05:52:39;99156.84;;;27.14;85.65
7026;BME280;3554;42.132;24.786;2023-07-29T05:55:07;99160.16;;;27.24;81.93
7026;BME280;3554;42.132;24.786;2023-07-29T05:57:35;99126.53;;;27.36;79.79
7026;BME280;3554;42.132;24.786;2023-07-29T06:00:02;99161.44;;;27.83;77.08
7026;BME280;3554;42.132;24.786;2023-07-29T06:02:29;99153.00;;;27.56;74.77
7026;BME280;3554;42.132;24.786;2023-07-29T06:04:56;99155.53;;;27.88;73.58
7026;BME280;3554;42.132;24.786;2023-07-29T06:07:22;99147.50;;;27.49;71.17
7026;BME280;3554;42.132;24.786;2023-07-29T06:09:49;99144.84;;;27.41;73.02
7026;BME280;3554;42.132;24.786;2023-07-29T06:12:18;99119.47;;;26.73;72.80
7026;BME280;3554;42.132;24.786;2023-07-29T06:14:46;99148.75;;;27.30;74.02
7026;BME280;3554;42.132;24.786;2023-07-29T06:17:13;99152.72;;;27.81;71.96
7026;BME280;3554;42.132;24.786;2023-07-29T06:19:40;99149.47;;;27.94;70.42
7026;BME280;3554;42.132;24.786;2023-07-29T06:22:06;99147.44;;;27.96;72.03
7026;BME280;3554;42.132;24.786;2023-07-29T06:24:33;99157.06;;;28.21;69.94
7026;BME280;3554;42.132;24.786;2023-07-29T06:27:00;99159.25;;;28.40;69.59
7026;BME280;3554;42.132;24.786;2023-07-29T06:29:27;99158.50;;;28.54;66.31
7026;BME280;3554;42.132;24.786;2023-07-29T06:31:55;99158.31;;;28.78;65.52
7026;BME280;3554;42.132;24.786;2023-07-29T06:34:22;99155.41;;;28.80;61.96
7026;BME280;3554;42.132;24.786;2023-07-29T06:36:49;99154.72;;;28.63;64.67
7026;BME280;3554;42.132;24.786;2023-07-29T06:39:15;99152.53;;;28.36;66.93
7026;BME280;3554;42.132;24.786;2023-07-29T06:41:42;99145.38;;;28.51;65.02
7026;BME280;3554;42.132;24.786;2023-07-29T06:44:09;99137.19;;;28.67;65.35
7026;BME280;3554;42.132;24.786;2023-07-29T06:46:36;99150.88;;;28.58;66.07
7026;BME280;3554;42.132;24.786;2023-07-29T06:49:05;99139.19;;;28.20;62.31
7026;BME280;3554;42.132;24.786;2023-07-29T06:51:32;99151.19;;;28.40;61.79
7026;BME280;3554;42.132;24.786;2023-07-29T06:54:00;99141.53;;;28.68;64.03
7026;BME280;3554;42.132;24.786;2023-07-29T06:56:28;99151.22;;;28.77;61.63
7026;BME280;3554;42.132;24.786;2023-07-29T06:58:55;99148.38;;;28.56;60.00
7026;BME280;3554;42.132;24.786;2023-07-29T07:01:22;99147.72;;;28.54;60.06
7026;BME280;3554;42.132;24.786;2023-07-29T07:03:48;99156.28;;;28.35;59.04
7026;BME280;3554;42.132;24.786;2023-07-29T07:06:16;99147.78;;;28.46;59.59
7026;BME280;3554;42.132;24.786;2023-07-29T07:08:43;99143.78;;;28.79;59.56
7026;BME280;3554;42.132;24.786;2023-07-29T07:11:11;99148.47;;;28.63;57.96
7026;BME280;3554;42.132;24.786;2023-07-29T07:13:39;99141.84;;;28.88;61.19
7026;BME280;3554;42.132;24.786;2023-07-29T07:16:05;99132.28;;;29.00;59.70
7026;BME280;3554;42.132;24.786;2023-07-29T07:18:32;99141.06;;;29.16;59.16
7026;BME280;3554;42.132;24.786;2023-07-29T07:20:59;99129.56;;;29.22;59.95
7026;BME280;3554;42.132;24.786;2023-07-29T07:23:27;99131.59;;;28.69;58.16
7026;BME280;3554;42.132;24.786;2023-07-29T07:25:54;99125.75;;;28.20;61.76
7026;BME280;3554;42.132;24.786;2023-07-29T07:28:21;99122.75;;;28.15;64.98
7026;BME280;3554;42.132;24.786;2023-07-29T07:30:48;99105.16;;;28.49;69.53
7026;BME280;3554;42.132;24.786;2023-07-29T07:33:15;99123.22;;;27.88;68.16
7026;BME280;3554;42.132;24.786;2023-07-29T07:35:42;99113.31;;;27.96;68.75
7026;BME280;3554;42.132;24.786;2023-07-29T07:38:09;99110.91;;;28.24;66.36
7026;BME280;3554;42.132;24.786;2023-07-29T07:40:37;99114.16;;;27.89;69.20
7026;BME280;3554;42.132;24.786;2023-07-29T07:43:04;99109.06;;;28.02;67.73
7026;BME280;3554;42.132;24.786;2023-07-29T07:45:32;99083.97;;;28.24;65.51
7026;BME280;3554;42.132;24.786;2023-07-29T07:47:58;99100.41;;;28.89;69.96
7026;BME280;3554;42.132;24.786;2023-07-29T07:50:25;99098.78;;;29.17;64.48
7026;BME280;3554;42.132;24.786;2023-07-29T07:52:55;99093.31;;;28.73;63.39
7026;BME280;3554;42.132;24.786;2023-07-29T07:55:21;99097.22;;;28.71;63.30
7026;BME280;3554;42.132;24.786;2023-07-29T07:57:50;99097.59;;;28.45;66.14
7026;BME280;3554;42.132;24.786;2023-07-29T08:00:16;99089.78;;;28.58;68.28
7026;BME280;3554;42.132;24.786;2023-07-29T08:02:44;99094.72;;;28.98;63.20
7026;BME280;3554;42.132;24.786;2023-07-29T08:05:11;99091.28;;;28.90;63.89
7026;BME280;3554;42.132;24.786;2023-07-29T08:07:38;99085.03;;;29.12;63.90
7026;BME280;3554;42.132;24.786;2023-07-29T08:10:06;99082.09;;;29.42;63.12
7026;BME280;3554;42.132;24.786;2023-07-29T08:12:33;99074.38;;;28.81;64.89
7026;BME280;3554;42.132;24.786;2023-07-29T08:15:01;99070.13;;;29.01;64.65
7026;BME280;3554;42.132;24.786;2023-07-29T08:17:28;99063.53;;;29.18;62.75
7026;BME280;3554;42.132;24.786;2023-07-29T08:19:55;99066.16;;;29.12;62.25
7026;BME280;3554;42.132;24.786;2023-07-29T08:22:22;99071.22;;;29.07;65.04
7026;BME280;3554;42.132;24.786;2023-07-29T08:24:48;99069.81;;;29.55;61.67
7026;BME280;3554;42.132;24.786;2023-07-29T08:27:15;99068.81;;;29.77;62.81
7026;BME280;3554;42.132;24.786;2023-07-29T08:29:42;99064.75;;;29.51;59.48
7026;BME280;3554;42.132;24.786;2023-07-29T08:32:10;99065.72;;;28.86;63.38
7026;BME280;3554;42.132;24.786;2023-07-29T08:34:37;99062.56;;;28.82;64.75
7026;BME280;3554;42.132;24.786;2023-07-29T08:37:04;99043.81;;;29.03;65.02
7026;BME280;3554;42.132;24.786;2023-07-29T08:39:33;99037.72;;;29.45;60.62
7026;BME280;3554;42.132;24.786;2023-07-29T08:42:02;99037.28;;;29.63;59.46
7026;BME280;3554;42.132;24.786;2023-07-29T08:44:35;99043.72;;;29.97;57.34
7026;BME280;3554;42.132;24.786;2023-07-29T08:47:02;99037.81;;;30.08;59.50
7026;BME280;3554;42.132;24.786;2023-07-29T08:49:31;99046.25;;;30.47;57.55
7026;BME280;3554;42.132;24.786;2023-07-29T08:51:59;99044.53;;;30.40;54.71
7026;BME280;3554;42.132;24.786;2023-07-29T08:54:26;99041.13;;;29.89;54.49
7026;BME280;3554;42.132;24.786;2023-07-29T08:56:53;99037.94;;;29.65;54.87
7026;BME280;3554;42.132;24.786;2023-07-29T08:59:20;99031.03;;;29.98;53.63
7026;BME280;3554;42.132;24.786;2023-07-29T09:01:47;99038.69;;;30.36;54.22
7026;BME280;3554;42.132;24.786;2023-07-29T09:04:15;99046.84;;;30.71;50.82
7026;BME280;3554;42.132;24.786;2023-07-29T09:06:45;99036.19;;;30.90;52.54
7026;BME280;3554;42.132;24.786;2023-07-29T09:09:13;99032.34;;;31.12;54.66
7026;BME280;3554;42.132;24.786;2023-07-29T09:11:40;99036.53;;;30.81;49.31
7026;BME280;3554;42.132;24.786;2023-07-29T09:14:06;99035.38;;;30.96;46.73
7026;BME280;3554;42.132;24.786;2023-07-29T09:16:33;99038.28;;;30.95;46.72
7026;BME280;3554;42.132;24.786;2023-07-29T09:19:01;99033.06;;;30.93;45.94
7026;BME280;3554;42.132;24.786;2023-07-29T09:21:28;99033.41;;;31.24;45.28
7026;BME280;3554;42.132;24.786;2023-07-29T09:24:02;99032.88;;;31.35;44.83
7026;BME280;3554;42.132;24.786;2023-07-29T09:26:29;99005.97;;;31.27;45.10
7026;BME280;3554;42.132;24.786;2023-07-29T09:28:57;99018.75;;;31.46;43.08
7026;BME280;3554;42.132;24.786;2023-07-29T09:31:27;99003.78;;;31.50;44.44
7026;BME280;3554;42.132;24.786;2023-07-29T09:33:56;98990.84;;;31.46;44.26
7026;BME280;3554;42.132;24.786;2023-07-29T09:36:23;99007.31;;;31.51;43.88
7026;BME280;3554;42.132;24.786;2023-07-29T09:38:52;98995.63;;;31.37;42.77
7026;BME280;3554;42.132;24.786;2023-07-29T09:41:23;99002.53;;;31.46;40.93
7026;BME280;3554;42.132;24.786;2023-07-29T09:43:56;98956.72;;;31.58;42.14
7026;BME280;3554;42.132;24.786;2023-07-29T09:46:24;99001.13;;;31.77;41.18
7026;BME280;3554;42.132;24.786;2023-07-29T09:48:53;98990.00;;;30.92;42.69
7026;BME280;3554;42.132;24.786;2023-07-29T09:51:21;98989.53;;;30.82;43.54
7026;BME280;3554;42.132;24.786;2023-07-29T09:53:49;98980.91;;;31.06;41.88
7026;BME280;3554;42.132;24.786;2023-07-29T09:56:17;98991.06;;;31.44;39.12
7026;BME280;3554;42.132;24.786;2023-07-29T09:58:45;98989.66;;;31.81;40.47
7026;BME280;3554;42.132;24.786;2023-07-29T10:01:12;98982.44;;;31.95;39.73
7026;BME280;3554;42.132;24.786;2023-07-29T10:03:39;98978.69;;;32.02;40.11
7026;BME280;3554;42.132;24.786;2023-07-29T10:06:07;98981.81;;;32.25;42.77
7026;BME280;3554;42.132;24.786;2023-07-29T10:08:34;98978.06;;;32.13;40.24
7026;BME280;3554;42.132;24.786;2023-07-29T10:11:04;98983.06;;;31.97;41.39
7026;BME280;3554;42.132;24.786;2023-07-29T10:13:32;98972.19;;;31.84;39.91
7026;BME280;3554;42.132;24.786;2023-07-29T10:16:00;98966.56;;;31.72;42.18
7026;BME280;3554;42.132;24.786;2023-07-29T10:18:29;98961.13;;;31.59;42.86
7026;BME280;3554;42.132;24.786;2023-07-29T10:20:58;98961.97;;;31.73;42.27
7026;BME280;3554;42.132;24.786;2023-07-29T10:23:27;98966.97;;;31.82;41.85
7026;BME280;3554;42.132;24.786;2023-07-29T10:25:58;98966.34;;;31.87;40.76
7026;BME280;3554;42.132;24.786;2023-07-29T10:28:29;98970.56;;;32.15;40.63
7026;BME280;3554;42.132;24.786;2023-07-29T10:30:57;98969.94;;;32.20;39.27
7026;BME280;3554;42.132;24.786;2023-07-29T10:33:26;98965.34;;;32.27;38.95
7026;BME280;3554;42.132;24.786;2023-07-29T10:35:53;98959.28;;;32.31;37.92
7026;BME280;3554;42.132;24.786;2023-07-29T10:38:21;98958.25;;;32.45;38.30
7026;BME280;3554;42.132;24.786;2023-07-29T10:40:51;98960.53;;;32.55;37.68
7026;BME280;3554;42.132;24.786;2023-07-29T10:43:25;98944.44;;;32.67;38.09
7026;BME280;3554;42.132;24.786;2023-07-29T10:45:52;98940.25;;;32.71;36.85
7026;BME280;3554;42.132;24.786;2023-07-29T10:48:42;98940.31;;;32.51;36.93
7026;BME280;3554;42.132;24.786;2023-07-29T10:51:26;98946.16;;;32.35;37.94
7026;BME280;3554;42.132;24.786;2023-07-29T10:53:55;98938.22;;;32.33;38.54
7026;BME280;3554;42.132;24.786;2023-07-29T10:56:30;98939.91;;;32.54;37.26
7026;BME280;3554;42.132;24.786;2023-07-29T10:59:22;98944.06;;;32.50;35.98
7026;BME280;3554;42.132;24.786;2023-07-29T11:01:51;98935.75;;;32.32;36.62
7026;BME280;3554;42.132;24.786;2023-07-29T11:04:27;98929.28;;;32.26;35.68
7026;BME280;3554;42.132;24.786;2023-07-29T11:07:20;98931.59;;;32.23;35.52
7026;BME280;3554;42.132;24.786;2023-07-29T11:09:59;98931.19;;;31.93;35.59
7026;BME280;3554;42.132;24.786;2023-07-29T11:12:41;98912.41;;;32.18;36.17
7026;BME280;3554;42.132;24.786;2023-07-29T11:15:15;98875.91;;;32.20;37.43
7026;BME280;3554;42.132;24.786;2023-07-29T11:17:43;98911.34;;;32.51;36.10
7026;BME280;3554;42.132;24.786;2023-07-29T11:20:13;98916.97;;;32.50;36.20
7026;BME280;3554;42.132;24.786;2023-07-29T11:22:40;98897.56;;;32.53;35.53
7026;BME280;3554;42.132;24.786;2023-07-29T11:25:09;98901.41;;;32.83;35.40
7026;BME280;3554;42.132;24.786;2023-07-29T11:27:36;98903.41;;;32.50;35.54
7026;BME280;3554;42.132;24.786;2023-07-29T11:30:05;98909.44;;;32.59;35.69
7026;BME280;3554;42.132;24.786;2023-07-29T11:32:32;98907.78;;;32.58;35.25
7026;BME280;3554;42.132;24.786;2023-07-29T11:35:02;98895.44;;;32.68;35.53
7026;BME280;3554;42.132;24.786;2023-07-29T11:37:30;98902.28;;;32.77;34.92
7026;BME280;3554;42.132;24.786;2023-07-29T11:39:57;98903.59;;;32.55;35.02
7026;BME280;3554;42.132;24.786;2023-07-29T11:42:26;98893.94;;;32.72;35.18
7026;BME280;3554;42.132;24.786;2023-07-29T11:44:53;98893.09;;;32.78;33.92
7026;BME280;3554;42.132;24.786;2023-07-29T11:47:20;98887.47;;;32.67;35.14
7026;BME280;3554;42.132;24.786;2023-07-29T11:49:47;98886.00;;;32.77;34.67
7026;BME280;3554;42.132;24.786;2023-07-29T11:52:14;98885.69;;;32.54;34.87
7026;BME280;3554;42.132;24.786;2023-07-29T11:54:47;98871.91;;;32.56;34.76
7026;BME280;3554;42.132;24.786;2023-07-29T11:57:14;98876.50;;;32.55;34.65
7026;BME280;3554;42.132;24.786;2023-07-29T11:59:42;98874.31;;;32.70;34.58
7026;BME280;3554;42.132;24.786;2023-07-29T12:02:11;98872.47;;;32.71;34.79
7026;BME280;3554;42.132;24.786;2023-07-29T12:04:39;98878.09;;;32.69;34.53
7026;BME280;3554;42.132;24.786;2023-07-29T12:07:06;98873.66;;;32.88;33.35
7026;BME280;3554;42.132;24.786;2023-07-29T12:09:33;98858.66;;;32.79;32.80
7026;BME280;3554;42.132;24.786;2023-07-29T12:12:03;98872.84;;;32.81;33.77
7026;BME280;3554;42.132;24.786;2023-07-29T12:14:30;98825.53;;;32.70;33.40
7026;BME280;3554;42.132;24.786;2023-07-29T12:16:59;98870.72;;;32.83;33.91
7026;BME280;3554;42.132;24.786;2023-07-29T12:19:31;98872.00;;;32.93;32.99
7026;BME280;3554;42.132;24.786;2023-07-29T12:21:59;98869.44;;;32.98;33.16
7026;BME280;3554;42.132;24.786;2023-07-29T12:24:26;98874.47;;;32.95;33.64
7026;BME280;3554;42.132;24.786;2023-07-29T12:26:53;98850.88;;;32.95;32.83
7026;BME280;3554;42.132;24.786;2023-07-29T12:29:21;98846.31;;;32.83;32.89
7026;BME280;3554;42.132;24.786;2023-07-29T12:31:48;98832.66;;;32.65;32.88
7026;BME280;3554;42.132;24.786;2023-07-29T12:34:18;98854.06;;;32.79;32.37
7026;BME280;3554;42.132;24.786;2023-07-29T12:36:47;98844.22;;;32.91;32.67
7026;BME280;3554;42.132;24.786;2023-07-29T12:39:18;98847.53;;;33.00;32.00
7026;BME280;3554;42.132;24.786;2023-07-29T12:41:45;98836.69;;;33.00;31.95
7026;BME280;3554;42.132;24.786;2023-07-29T12:44:12;98840.03;;;32.95;31.71
7026;BME280;3554;42.132;24.786;2023-07-29T12:46:40;98838.50;;;33.06;30.88
7026;BME280;3554;42.132;24.786;2023-07-29T12:49:07;98834.28;;;33.16;30.54
7026;BME280;3554;42.132;24.786;2023-07-29T12:51:34;98810.25;;;32.82;30.46
7026;BME280;3554;42.132;24.786;2023-07-29T12:54:01;98836.72;;;32.93;30.03
7026;BME280;3554;42.132;24.786;2023-07-29T12:56:29;98839.66;;;32.85;30.17
7026;BME280;3554;42.132;24.786;2023-07-29T12:58:56;98835.78;;;32.68;29.44
7026;BME280;3554;42.132;24.786;2023-07-29T13:01:23;98834.72;;;32.69;29.47
7026;BME280;3554;42.132;24.786;2023-07-29T13:03:51;98834.50;;;32.77;29.07
7026;BME280;3554;42.132;24.786;2023-07-29T13:06:18;98836.53;;;32.82;29.61
7026;BME280;3554;42.132;24.786;2023-07-29T13:08:45;98846.25;;;33.02;29.73
7026;BME280;3554;42.132;24.786;2023-07-29T13:11:12;98837.47;;;33.07;29.50
7026;BME280;3554;42.132;24.786;2023-07-29T13:13:39;98837.81;;;33.17;29.03
7026;BME280;3554;42.132;24.786;2023-07-29T13:16:05;98846.19;;;33.46;29.49